Wetterdaten: Woche 12.05.03 - 18.05.03 (KW20)
Datum Zeit Temperatur Luftfeuchte Luftdruck Regenmenge Wind Richtung Taupunkt Windchill
12.05.2003 00:00 13.5 C 99 % 1017.5 hPa 0.6 l/m 2.4 km/h (1 Bft) W-NW 13.3 C 13.5 C
12.05.2003 01:00 13.3 C 100 % 1019.2 hPa 9.9 l/m 2.5 km/h (1 Bft) NW 13.3 C 13.3 C
12.05.2003 02:00 12.9 C 100 % 1018.9 hPa 1.5 l/m 1.4 km/h (1 Bft) W-NW 12.9 C 12.9 C
12.05.2003 03:00 12.5 C 100 % 1019.4 hPa 0.0 l/m 1.8 km/h (1 Bft) SO 12.5 C 12.5 C
12.05.2003 04:00 12.2 C 100 % 1019.4 hPa 0.3 l/m 1.6 km/h (1 Bft) SO 12.2 C 12.2 C
12.05.2003 05:00 11.7 C 100 % 1019.4 hPa 0.0 l/m 2.8 km/h (1 Bft) SO 11.7 C 11.7 C
12.05.2003 06:00 11.8 C 100 % 1019.9 hPa 0.0 l/m 0.4 km/h (0 Bft) SO 11.8 C 11.8 C
12.05.2003 07:00 12.1 C 100 % 1020.5 hPa 0.0 l/m 6.0 km/h (2 Bft) SO 12.1 C 12.1 C
12.05.2003 08:00 13.2 C 98 % 1020.5 hPa 0.0 l/m 1.5 km/h (1 Bft) SO 12.9 C 13.2 C
12.05.2003 09:00 14.2 C 85 % 1020.5 hPa 0.0 l/m 8.7 km/h (2 Bft) W-NW 11.6 C 14.2 C
12.05.2003 10:00 15.7 C 70 % 1020.5 hPa 0.0 l/m 7.8 km/h (2 Bft) W-NW 10.3 C 15.7 C
12.05.2003 11:00 16.1 C 67 % 1020.3 hPa 0.0 l/m 7.5 km/h (2 Bft) W-NW 10.0 C 16.1 C
12.05.2003 12:00 17.4 C 61 % 1019.4 hPa 0.0 l/m 4.6 km/h (1 Bft) W-NW 9.9 C 17.4 C
12.05.2003 13:00 18.4 C 58 % 1019.3 hPa 0.0 l/m 4.4 km/h (1 Bft) W-NW 10.0 C 18.4 C
12.05.2003 14:00 20.0 C 50 % 1018.3 hPa 0.0 l/m 5.3 km/h (1 Bft) W-NW 9.1 C 20.0 C
12.05.2003 15:00 20.7 C 46 % 1017.3 hPa 0.0 l/m 4.4 km/h (1 Bft) W-NW 8.6 C 20.7 C
12.05.2003 16:00 20.9 C 45 % 1016.6 hPa 0.0 l/m 9.1 km/h (2 Bft) W-NW 8.6 C 20.9 C
12.05.2003 17:00 21.0 C 46 % 1015.8 hPa 0.0 l/m 8.6 km/h (2 Bft) W-NW 8.9 C 21.0 C
12.05.2003 18:00 20.7 C 48 % 1015.3 hPa 0.0 l/m 10.3 km/h (2 Bft) W-NW 9.4 C 20.7 C
12.05.2003 19:00 19.2 C 52 % 1015.3 hPa 0.0 l/m 4.0 km/h (1 Bft) W-NW 9.2 C 19.2 C
12.05.2003 20:00 17.6 C 63 % 1015.3 hPa 0.0 l/m 3.3 km/h (1 Bft) W-NW 10.4 C 17.6 C
12.05.2003 21:00 15.3 C 78 % 1015.3 hPa 0.0 l/m 1.2 km/h (1 Bft) SO 11.5 C 15.3 C
12.05.2003 22:00 14.6 C 83 % 1015.3 hPa 0.0 l/m 5.7 km/h (1 Bft) SO 11.7 C 14.6 C
12.05.2003 23:00 13.6 C 87 % 1015.3 hPa 0.0 l/m 1.5 km/h (1 Bft) O-SO 11.5 C 13.6 C
13.05.2003 00:00 14.3 C 75 % 1015.3 hPa 0.0 l/m 0.1 km/h (0 Bft) N 9.9 C 14.3 C
13.05.2003 01:00 14.0 C 81 % 1015.3 hPa 0.0 l/m 2.2 km/h (1 Bft) O-SO 10.9 C 14.0 C
13.05.2003 02:00 13.6 C 88 % 1014.4 hPa 0.0 l/m 0.7 km/h (0 Bft) O-SO 11.7 C 13.6 C
13.05.2003 03:00 13.1 C 92 % 1014.2 hPa 0.0 l/m 1.0 km/h (0 Bft) SO 11.7 C 13.1 C
13.05.2003 04:00 13.4 C 81 % 1014.2 hPa 0.0 l/m 22.3 km/h (4 Bft) W-NW 10.1 C 13.4 C
13.05.2003 05:00 12.6 C 71 % 1015.1 hPa 0.0 l/m 36.1 km/h (5 Bft) NW 7.5 C 12.6 C
13.05.2003 06:00 11.3 C 89 % 1015.3 hPa 0.0 l/m 8.2 km/h (2 Bft) W-NW 9.6 C 11.3 C
13.05.2003 07:00 11.1 C 89 % 1015.3 hPa 0.6 l/m 2.4 km/h (1 Bft) W 9.3 C 11.1 C
13.05.2003 08:00 11.1 C 96 % 1015.3 hPa 0.6 l/m 0.4 km/h (0 Bft) SO 10.4 C 11.1 C
13.05.2003 09:00 11.5 C 94 % 1015.3 hPa 0.0 l/m 3.6 km/h (1 Bft) W 10.5 C 11.5 C
13.05.2003 10:00 11.5 C 87 % 1015.6 hPa 0.0 l/m 28.6 km/h (4 Bft) NW 9.3 C 11.5 C
13.05.2003 11:00 10.7 C 87 % 1016.3 hPa 0.6 l/m 21.1 km/h (4 Bft) W-NW 8.6 C 10.7 C
13.05.2003 12:00 11.0 C 87 % 1016.3 hPa 0.3 l/m 23.9 km/h (4 Bft) W-NW 8.9 C 11.0 C
13.05.2003 13:00 11.1 C 84 % 1016.4 hPa 0.3 l/m 19.3 km/h (3 Bft) W-NW 8.5 C 11.1 C
13.05.2003 14:00 11.0 C 78 % 1017.3 hPa 0.0 l/m 27.4 km/h (4 Bft) W-NW 7.2 C 11.0 C
13.05.2003 15:00 10.4 C 75 % 1017.9 hPa 0.0 l/m 21.3 km/h (4 Bft) W-NW 6.2 C 10.1 C
13.05.2003 16:00 10.3 C 69 % 1018.4 hPa 0.0 l/m 19.4 km/h (3 Bft) W-NW 4.9 C 10.2 C
13.05.2003 17:00 10.1 C 71 % 1019.0 hPa 0.0 l/m 1.8 km/h (1 Bft) W 5.0 C 10.1 C
13.05.2003 18:00 9.8 C 75 % 1019.4 hPa 0.0 l/m 4.3 km/h (1 Bft) SO 5.6 C 9.3 C
13.05.2003 19:00 10.0 C 75 % 1019.4 hPa 0.0 l/m 4.8 km/h (1 Bft) SO 5.7 C 9.6 C
13.05.2003 20:00 9.6 C 77 % 1019.4 hPa 0.0 l/m 8.7 km/h (2 Bft) SO 5.8 C 8.5 C
13.05.2003 21:00 8.5 C 88 % 1020.3 hPa 0.0 l/m 8.3 km/h (2 Bft) SO 6.6 C 7.2 C
13.05.2003 22:00 8.4 C 89 % 1020.5 hPa 0.0 l/m 1.7 km/h (1 Bft) O-SO 6.8 C 8.3 C
13.05.2003 23:00 8.3 C 83 % 1020.7 hPa 0.0 l/m 18.8 km/h (3 Bft) NW 5.4 C 5.8 C
14.05.2003 00:00 7.1 C 81 % 1021.5 hPa 0.0 l/m 10.2 km/h (2 Bft) W-NW 3.9 C 5.4 C
14.05.2003 01:00 5.3 C 92 % 1021.5 hPa 0.0 l/m 2.2 km/h (1 Bft) S-SO 4.1 C 5.1 C
14.05.2003 02:00 4.6 C 97 % 1021.5 hPa 0.0 l/m 6.9 km/h (2 Bft) SO 4.3 C 3.1 C
14.05.2003 03:00 4.8 C 96 % 1021.5 hPa 0.0 l/m 6.0 km/h (2 Bft) O-SO 4.2 C 3.4 C
14.05.2003 04:00 4.5 C 97 % 1021.5 hPa 0.0 l/m 0.0 km/h (0 Bft) N 4.0 C 4.5 C
14.05.2003 05:00 3.6 C 100 % 1021.5 hPa 0.0 l/m 4.5 km/h (1 Bft) O-SO 3.6 C 2.7 C
14.05.2003 06:00 4.7 C 99 % 1021.5 hPa 0.3 l/m 3.0 km/h (1 Bft) O-SO 4.6 C 4.1 C
14.05.2003 07:00 5.8 C 98 % 1021.5 hPa 0.0 l/m 1.1 km/h (1 Bft) O-SO 5.5 C 5.6 C
14.05.2003 08:00 7.7 C 85 % 1021.5 hPa 0.0 l/m 4.0 km/h (1 Bft) W-NW 5.3 C 7.1 C
14.05.2003 09:00 8.4 C 71 % 1021.5 hPa 0.0 l/m 15.0 km/h (3 Bft) W-NW 3.5 C 6.0 C
14.05.2003 10:00 8.8 C 67 % 1021.5 hPa 0.3 l/m 7.6 km/h (2 Bft) W-NW 2.9 C 7.8 C
14.05.2003 11:00 10.7 C 64 % 1021.5 hPa 0.0 l/m 10.1 km/h (2 Bft) SO 4.3 C 10.4 C
14.05.2003 12:00 8.7 C 62 % 1021.7 hPa 0.0 l/m 18.5 km/h (3 Bft) NW 1.8 C 6.6 C
14.05.2003 13:00 10.2 C 61 % 1021.5 hPa 0.0 l/m 5.8 km/h (2 Bft) NW 2.9 C 10.1 C
14.05.2003 14:00 11.1 C 52 % 1021.5 hPa 0.0 l/m 17.4 km/h (3 Bft) W-NW 1.5 C 10.1 C
14.05.2003 15:00 13.1 C 48 % 1020.8 hPa 0.0 l/m 11.8 km/h (2 Bft) NW 2.2 C 12.8 C
14.05.2003 16:00 10.0 C 61 % 1021.5 hPa 0.3 l/m 32.7 km/h (5 Bft) NW 2.9 C 9.1 C
14.05.2003 17:00 11.1 C 52 % 1021.9 hPa 0.0 l/m 28.0 km/h (4 Bft) NW 1.6 C 11.1 C
14.05.2003 18:00 11.6 C 49 % 1022.5 hPa 0.0 l/m 20.8 km/h (4 Bft) NW 1.1 C 11.6 C
14.05.2003 19:00 10.6 C 56 % 1022.5 hPa 0.0 l/m 19.5 km/h (3 Bft) W-NW 2.2 C 10.2 C
14.05.2003 20:00 8.7 C 69 % 1023.1 hPa 0.0 l/m 2.8 km/h (1 Bft) W-NW 3.3 C 8.4 C
14.05.2003 21:00 6.8 C 82 % 1023.6 hPa 0.0 l/m 1.7 km/h (1 Bft) W-NW 3.8 C 6.6 C
14.05.2003 22:00 6.1 C 83 % 1023.6 hPa 0.0 l/m 0.6 km/h (0 Bft) W-NW 3.4 C 6.0 C
14.05.2003 23:00 5.2 C 90 % 1023.6 hPa 0.0 l/m 0.1 km/h (0 Bft) N 3.7 C 5.2 C
15.05.2003 00:00 4.6 C 92 % 1023.6 hPa 0.0 l/m 1.0 km/h (0 Bft) O 3.4 C 4.5 C
15.05.2003 01:00 3.3 C 98 % 1023.6 hPa 0.0 l/m 2.6 km/h (1 Bft) O 3.0 C 2.8 C
15.05.2003 02:00 3.6 C 100 % 1023.6 hPa 0.0 l/m 0.7 km/h (0 Bft) O 3.6 C 3.5 C
15.05.2003 03:00 2.7 C 100 % 1023.6 hPa 0.0 l/m 1.6 km/h (1 Bft) O-SO 2.7 C 2.4 C
15.05.2003 04:00 2.1 C 100 % 1023.6 hPa 0.0 l/m 0.0 km/h (0 Bft) N 2.1 C 2.1 C
15.05.2003 05:00 1.7 C 100 % 1023.6 hPa 0.0 l/m 0.0 km/h (0 Bft) N 1.7 C 1.7 C
15.05.2003 06:00 2.7 C 100 % 1023.6 hPa 0.0 l/m 0.0 km/h (0 Bft) N 2.7 C 2.7 C
15.05.2003 07:00 4.2 C 96 % 1024.3 hPa 0.0 l/m 0.5 km/h (0 Bft) O-SO 3.7 C 4.2 C
15.05.2003 08:00 5.2 C 93 % 1024.6 hPa 0.0 l/m 0.7 km/h (0 Bft) N-NO 4.0 C 5.1 C
15.05.2003 09:00 7.6 C 77 % 1024.6 hPa 0.0 l/m 1.1 km/h (0 Bft) SO 3.8 C 7.5 C
15.05.2003 10:00 10.5 C 57 % 1023.6 hPa 0.0 l/m 4.4 km/h (1 Bft) O-SO 2.4 C 10.4 C
15.05.2003 11:00 12.8 C 45 % 1023.6 hPa 0.0 l/m 4.8 km/h (1 Bft) O-SO 1.0 C 12.8 C
15.05.2003 12:00 12.7 C 42 % 1022.9 hPa 0.0 l/m 2.7 km/h (1 Bft) W-NW 0.0 C 12.7 C
15.05.2003 13:00 15.0 C 34 % 1022.5 hPa 0.0 l/m 5.6 km/h (1 Bft) O-SO -0.8 C 15.0 C
15.05.2003 14:00 15.2 C 38 % 1022.2 hPa 0.0 l/m 3.0 km/h (1 Bft) N-NW 1.1 C 15.2 C
15.05.2003 15:00 16.0 C 32 % 1021.5 hPa 0.0 l/m 5.8 km/h (2 Bft) W-NW -0.6 C 16.0 C
15.05.2003 16:00 17.0 C 33 % 1020.5 hPa 0.0 l/m 7.2 km/h (2 Bft) O-SO 0.6 C 17.0 C
15.05.2003 17:00 16.7 C 31 % 1020.5 hPa 0.0 l/m 3.9 km/h (1 Bft) O-SO -0.6 C 16.7 C
15.05.2003 18:00 15.7 C 35 % 1019.9 hPa 0.0 l/m 8.4 km/h (2 Bft) O-SO 0.2 C 15.7 C
15.05.2003 19:00 14.3 C 39 % 1019.4 hPa 0.0 l/m 0.9 km/h (0 Bft) O-SO 0.5 C 14.3 C
15.05.2003 20:00 12.1 C 50 % 1019.4 hPa 0.0 l/m 2.7 km/h (1 Bft) O-SO 1.9 C 12.0 C
15.05.2003 21:00 8.6 C 69 % 1019.4 hPa 0.0 l/m 1.4 km/h (1 Bft) O-SO 3.4 C 8.6 C
15.05.2003 22:00 7.4 C 76 % 1019.6 hPa 0.0 l/m 0.0 km/h (0 Bft) N 3.5 C 7.4 C
15.05.2003 23:00 6.7 C 77 % 1019.4 hPa 0.0 l/m 0.6 km/h (0 Bft) SO 2.9 C 6.6 C
16.05.2003 00:00 5.1 C 90 % 1019.4 hPa 0.0 l/m 1.0 km/h (0 Bft) SO 3.6 C 5.1 C
16.05.2003 01:00 4.7 C 93 % 1019.4 hPa 0.0 l/m 0.0 km/h (0 Bft) N 3.6 C 4.7 C
16.05.2003 02:00 4.0 C 95 % 1019.3 hPa 0.0 l/m 0.4 km/h (0 Bft) SO 3.3 C 4.0 C
16.05.2003 03:00 3.4 C 97 % 1018.4 hPa 0.0 l/m 0.8 km/h (0 Bft) SO 2.9 C 3.3 C
16.05.2003 04:00 2.9 C 98 % 1018.4 hPa 0.0 l/m 0.0 km/h (0 Bft) N 2.7 C 2.9 C
16.05.2003 05:00 1.9 C 100 % 1018.4 hPa 0.0 l/m 0.0 km/h (0 Bft) N 1.9 C 1.9 C
16.05.2003 06:00 2.1 C 100 % 1018.4 hPa 0.0 l/m 0.0 km/h (0 Bft) N 2.1 C 2.1 C
16.05.2003 07:00 3.8 C 98 % 1018.4 hPa 0.0 l/m 0.0 km/h (0 Bft) N 3.5 C 3.8 C
16.05.2003 08:00 6.0 C 87 % 1018.3 hPa 0.0 l/m 0.5 km/h (0 Bft) SW 4.0 C 6.0 C
16.05.2003 09:00 8.9 C 70 % 1017.5 hPa 0.0 l/m 2.5 km/h (1 Bft) O 3.6 C 8.7 C
16.05.2003 10:00 11.9 C 58 % 1017.3 hPa 0.0 l/m 1.7 km/h (1 Bft) O-SO 3.9 C 11.9 C
16.05.2003 11:00 14.5 C 50 % 1016.4 hPa 0.0 l/m 8.1 km/h (2 Bft) O-SO 4.2 C 14.5 C
16.05.2003 12:00 16.8 C 33 % 1016.2 hPa 0.0 l/m 15.6 km/h (3 Bft) O-SO 0.4 C 16.8 C
16.05.2003 13:00 17.5 C 34 % 1015.3 hPa 0.0 l/m 6.4 km/h (2 Bft) O-SO 1.4 C 17.5 C
16.05.2003 14:00 18.4 C 31 % 1014.3 hPa 0.0 l/m 4.0 km/h (1 Bft) W-NW 1.0 C 18.4 C
16.05.2003 15:00 19.8 C 33 % 1013.8 hPa 0.0 l/m 2.7 km/h (1 Bft) W-NW 2.9 C 19.8 C
16.05.2003 16:00 20.5 C 34 % 1013.2 hPa 0.0 l/m 1.2 km/h (1 Bft) NW 4.0 C 20.5 C
16.05.2003 17:00 20.6 C 33 % 1012.6 hPa 0.0 l/m 1.9 km/h (1 Bft) O-SO 3.7 C 20.6 C
16.05.2003 18:00 20.7 C 34 % 1012.2 hPa 0.0 l/m 0.5 km/h (0 Bft) O-NO 4.1 C 20.7 C
16.05.2003 19:00 18.6 C 41 % 1012.2 hPa 0.0 l/m 2.0 km/h (1 Bft) O-SO 4.9 C 18.6 C
16.05.2003 20:00 15.6 C 48 % 1012.2 hPa 0.0 l/m 2.4 km/h (1 Bft) SO 4.7 C 15.6 C
16.05.2003 21:00 13.5 C 61 % 1012.2 hPa 0.0 l/m 1.2 km/h (1 Bft) SO 6.0 C 13.5 C
16.05.2003 22:00 11.6 C 71 % 1013.2 hPa 0.0 l/m 0.9 km/h (0 Bft) SO 6.5 C 11.6 C
16.05.2003 23:00 10.1 C 79 % 1013.2 hPa 0.0 l/m 2.0 km/h (1 Bft) SO 6.7 C 10.0 C
17.05.2003 00:00 9.1 C 86 % 1013.2 hPa 0.0 l/m 0.0 km/h (0 Bft) N 6.8 C 9.1 C
17.05.2003 01:00 8.8 C 89 % 1013.2 hPa 0.0 l/m 1.6 km/h (1 Bft) SO 7.1 C 8.6 C
17.05.2003 02:00 8.8 C 88 % 1013.2 hPa 0.0 l/m 0.7 km/h (0 Bft) O-SO 6.9 C 8.8 C
17.05.2003 03:00 9.2 C 85 % 1013.2 hPa 0.0 l/m 0.0 km/h (0 Bft) N 6.9 C 9.2 C
17.05.2003 04:00 9.4 C 87 % 1013.2 hPa 0.0 l/m 0.0 km/h (0 Bft) N 7.4 C 9.4 C
17.05.2003 05:00 9.2 C 89 % 1013.2 hPa 0.0 l/m 0.0 km/h (0 Bft) N 7.5 C 9.2 C
17.05.2003 06:00 9.3 C 87 % 1013.2 hPa 0.0 l/m 1.9 km/h (1 Bft) O-SO 7.2 C 9.1 C
17.05.2003 07:00 10.1 C 84 % 1014.1 hPa 0.0 l/m 0.8 km/h (0 Bft) O-SO 7.4 C 10.1 C
17.05.2003 08:00 11.6 C 77 % 1014.7 hPa 0.0 l/m 8.2 km/h (2 Bft) NW 7.8 C 11.6 C
17.05.2003 09:00 12.5 C 76 % 1015.3 hPa 0.0 l/m 15.2 km/h (3 Bft) W-NW 8.3 C 12.5 C
17.05.2003 10:00 12.9 C 78 % 1015.3 hPa 0.0 l/m 1.2 km/h (1 Bft) W-NW 9.1 C 12.9 C
17.05.2003 11:00 13.2 C 76 % 1015.3 hPa 0.0 l/m 0.0 km/h (0 Bft) N 9.1 C 13.2 C
17.05.2003 12:00 13.7 C 73 % 1015.3 hPa 0.0 l/m 0.0 km/h (0 Bft) N 8.9 C 13.7 C
17.05.2003 13:00 14.0 C 72 % 1015.3 hPa 0.0 l/m 0.7 km/h (0 Bft) W-NW 9.1 C 14.0 C
17.05.2003 14:00 13.9 C 76 % 1016.2 hPa 0.0 l/m 2.4 km/h (1 Bft) W 9.7 C 13.9 C
17.05.2003 15:00 13.5 C 84 % 1016.3 hPa 0.0 l/m 0.5 km/h (0 Bft) SO 10.9 C 13.5 C
17.05.2003 16:00 12.9 C 83 % 1016.3 hPa 0.0 l/m 3.1 km/h (1 Bft) SO 10.1 C 12.9 C
17.05.2003 17:00 14.5 C 75 % 1016.3 hPa 0.0 l/m 2.8 km/h (1 Bft) SO 10.0 C 14.5 C
17.05.2003 18:00 16.9 C 62 % 1015.3 hPa 0.0 l/m 8.1 km/h (2 Bft) SO 9.6 C 16.9 C
17.05.2003 19:00 15.2 C 68 % 1015.3 hPa 0.0 l/m 4.9 km/h (1 Bft) SO 9.2 C 15.2 C
17.05.2003 20:00 14.6 C 73 % 1015.3 hPa 0.0 l/m 1.0 km/h (0 Bft) O-SO 9.8 C 14.6 C
17.05.2003 21:00 12.1 C 85 % 1016.1 hPa 0.0 l/m 2.9 km/h (1 Bft) O-SO 9.6 C 12.1 C
17.05.2003 22:00 11.7 C 85 % 1016.7 hPa 0.0 l/m 1.0 km/h (0 Bft) O-SO 9.2 C 11.7 C
17.05.2003 23:00 10.6 C 91 % 1016.9 hPa 0.0 l/m 4.8 km/h (1 Bft) O-SO 9.2 C 10.6 C
18.05.2003 00:00 10.1 C 96 % 1016.7 hPa 0.0 l/m 3.9 km/h (1 Bft) O-SO 9.5 C 10.1 C
18.05.2003 01:00 9.9 C 96 % 1016.7 hPa 0.0 l/m 0.0 km/h (0 Bft) N 9.4 C 9.9 C
18.05.2003 02:00 9.5 C 99 % 1016.3 hPa 0.0 l/m 0.0 km/h (0 Bft) N 9.3 C 9.5 C
18.05.2003 03:00 9.4 C 100 % 1016.3 hPa 0.0 l/m 0.2 km/h (0 Bft) W-NW 9.3 C 9.4 C
18.05.2003 04:00 9.5 C 98 % 1017.0 hPa 0.6 l/m 0.7 km/h (0 Bft) S 9.3 C 9.5 C
18.05.2003 05:00 9.6 C 100 % 1017.3 hPa 0.6 l/m 1.2 km/h (1 Bft) SO 9.6 C 9.6 C
18.05.2003 06:00 10.2 C 100 % 1017.3 hPa 0.6 l/m 0.2 km/h (0 Bft) SO 10.2 C 10.2 C
18.05.2003 07:00 10.9 C 100 % 1017.3 hPa 0.3 l/m 0.0 km/h (0 Bft) N 10.9 C 10.9 C
18.05.2003 08:00 12.1 C 100 % 1018.1 hPa 0.0 l/m 0.0 km/h (0 Bft) N 12.1 C 12.1 C
18.05.2003 09:00 13.0 C 96 % 1018.4 hPa 0.0 l/m 1.0 km/h (0 Bft) W 12.3 C 13.0 C
18.05.2003 10:00 13.6 C 94 % 1018.5 hPa 0.0 l/m 0.2 km/h (0 Bft) W-NW 12.7 C 13.6 C
18.05.2003 11:00 14.4 C 88 % 1018.7 hPa 0.0 l/m 1.6 km/h (1 Bft) W-NW 12.4 C 14.4 C
18.05.2003 12:00 16.8 C 74 % 1018.4 hPa 0.0 l/m 1.8 km/h (1 Bft) W-NW 12.1 C 16.8 C
18.05.2003 13:00 18.6 C 66 % 1018.4 hPa 0.0 l/m 0.8 km/h (0 Bft) NW 12.2 C 18.6 C
18.05.2003 14:00 19.9 C 61 % 1017.4 hPa 0.0 l/m 0.2 km/h (0 Bft) N 12.2 C 19.9 C
18.05.2003 15:00 20.8 C 55 % 1017.3 hPa 0.0 l/m 2.9 km/h (1 Bft) NW 11.5 C 20.8 C
18.05.2003 16:00 20.3 C 54 % 1017.3 hPa 0.0 l/m 14.5 km/h (3 Bft) NW 10.8 C 20.3 C
18.05.2003 17:00 18.9 C 61 % 1017.3 hPa 0.0 l/m 13.7 km/h (3 Bft) W-NW 11.2 C 18.9 C
18.05.2003 18:00 19.1 C 62 % 1017.3 hPa 0.0 l/m 4.1 km/h (1 Bft) W-NW 11.6 C 19.1 C
18.05.2003 19:00 18.4 C 67 % 1017.3 hPa 0.0 l/m 0.1 km/h (0 Bft) N 12.0 C 18.4 C
18.05.2003 20:00 17.4 C 73 % 1017.3 hPa 0.0 l/m 0.0 km/h (0 Bft) N 12.5 C 17.4 C
18.05.2003 21:00 15.9 C 86 % 1017.3 hPa 0.3 l/m 2.1 km/h (1 Bft) O 13.5 C 15.9 C
18.05.2003 22:00 15.0 C 96 % 1017.9 hPa 0.0 l/m 1.8 km/h (1 Bft) O 14.3 C 15.0 C
18.05.2003 23:00 14.9 C 96 % 1017.3 hPa 0.0 l/m 0.5 km/h (0 Bft) O 14.3 C 14.9 C
Min-Datum _ 15.05.03 15.05.03 16.05.03 - 12.05.03 - 15.05.03 15.05.03
_ Min-Zeit 05:53 17:13 18:00 - 00:11 - 13:11 03:38
Minimum _ 1.3 C 25 % 1012.2 hPa - 0.0 km/h (0 Bft) - -3.6 C 0.8 C
Max-Datum _ 18.05.03 12.05.03 15.05.03 12.05.03 14.05.03 - 18.05.03 18.05.03
_ Max-Zeit 15:59 00:47 08:00 01:23 15:58 - 22:27 15:59
Maximum _ 22.0 C 100 % 1024.6 hPa 9.9 l/m 49.4 km/h
NW (6 Bft)
- 14.6 C 22.0 C
Durchschnitt _ 11.7 C 76 % 1018.2 hPa #18.0 l/m 5.1 km/h (1 Bft) W-NW 6.9 C 11.5 C

Durchschnitt Minimum Temp.10.8 C
Durchschnitt Maximum Temp.12.5 C
© Kaiko 2003